Time;durP1;ratioP1;P1;durP2;ratioP2;P2;SDS_P1;SDS_P2;PMS_P1;PMS_P2;Temp;Humidity;BMP_temperature;BMP_pressure;BME280_temperature;BME280_humidity;BME280_pressure;Samples;Min_cycle;Max_cycle;Signal;HPM_P1;HPM_P2
2024/02/29 00:00:56;;;;;;;58.70;32.07;;;;;;;7.03;88.44;100744.56;1472766;87;21346;-77
2024/02/29 00:03:23;;;;;;;55.27;30.70;;;;;;;7.01;88.36;100742.86;1470911;88;21390;-77
2024/02/29 00:05:50;;;;;;;51.93;30.80;;;;;;;7.03;88.51;100749.34;1478958;87;21346;-78
2024/02/29 00:08:17;;;;;;;55.33;30.57;;;;;;;7.04;88.31;100739.64;1461246;87;21383;-79
2024/02/29 00:10:44;;;;;;;50.10;29.83;;;;;;;7.03;88.74;100737.98;1470820;87;21360;-79
2024/02/29 00:13:11;;;;;;;59.80;33.83;;;;;;;7.01;88.46;100739.40;1473806;87;22497;-78
2024/02/29 00:15:38;;;;;;;50.73;30.13;;;;;;;7.00;88.21;100741.69;1481282;87;21560;-77
2024/02/29 00:18:05;;;;;;;61.77;33.90;;;;;;;6.94;88.31;100743.47;1476153;87;21331;-77
2024/02/29 00:20:34;;;;;;;53.10;29.80;;;;;;;6.88;90.04;100743.45;1478521;87;21353;-77
2024/02/29 00:23:01;;;;;;;54.13;31.03;;;;;;;6.87;89.20;100738.30;1481719;87;21419;-77
2024/02/29 00:25:28;;;;;;;51.87;29.20;;;;;;;6.85;89.06;100732.30;1480881;87;21294;-76
2024/02/29 00:27:57;;;;;;;56.40;32.37;;;;;;;6.86;88.89;100731.36;1480541;87;21398;-77
2024/02/29 00:30:24;;;;;;;53.47;31.47;;;;;;;6.83;89.26;100735.55;1480401;87;22322;-78
2024/02/29 00:32:51;;;;;;;51.40;30.80;;;;;;;6.80;89.28;100729.20;1475463;87;21419;-77
2024/02/29 00:35:18;;;;;;;61.77;32.80;;;;;;;6.80;89.50;100730.52;1476606;87;21405;-77
2024/02/29 00:37:45;;;;;;;56.43;32.60;;;;;;;6.77;89.83;100728.47;1469618;88;22373;-77
2024/02/29 00:40:13;;;;;;;51.43;31.67;;;;;;;6.77;89.63;100727.64;1467603;88;21391;-77
2024/02/29 00:42:40;;;;;;;56.30;31.87;;;;;;;6.77;89.53;100728.47;1471772;87;21346;-77
2024/02/29 00:45:08;;;;;;;65.67;35.43;;;;;;;6.75;88.97;100727.73;1473753;87;21530;-76
2024/02/29 00:47:35;;;;;;;61.17;33.40;;;;;;;6.72;89.04;100725.34;1473046;88;21332;-77
2024/02/29 00:50:02;;;;;;;62.60;36.17;;;;;;;6.75;89.10;100730.38;1471604;87;21361;-76
2024/02/29 00:52:29;;;;;;;65.40;37.03;;;;;;;6.75;89.52;100729.53;1472171;87;21368;-77
2024/02/29 00:54:56;;;;;;;57.10;33.70;;;;;;;6.66;92.20;100730.23;1475220;87;22336;-77
2024/02/29 00:57:24;;;;;;;55.70;32.93;;;;;;;6.59;92.86;100732.95;1475194;88;21354;-78
2024/02/29 00:59:51;;;;;;;52.23;31.17;;;;;;;6.52;93.49;100739.14;1471550;87;22322;-77
2024/02/29 01:02:18;;;;;;;57.20;33.07;;;;;;;6.46;93.77;100739.61;1478778;87;21316;-77
2024/02/29 01:04:45;;;;;;;64.67;31.97;;;;;;;6.42;95.01;100743.42;1474530;87;21412;-76
2024/02/29 01:07:12;;;;;;;56.20;33.63;;;;;;;6.41;94.79;100739.09;1480791;88;22255;-79
2024/02/29 01:09:39;;;;;;;56.10;30.37;;;;;;;6.37;95.05;100733.23;1472272;87;21566;-79
2024/02/29 01:12:06;;;;;;;55.00;31.67;;;;;;;6.36;94.91;100739.45;1469282;87;21516;-79
2024/02/29 01:14:33;;;;;;;47.70;28.27;;;;;;;6.35;95.42;100742.19;1477148;87;21286;-78
2024/02/29 01:17:00;;;;;;;65.40;31.23;;;;;;;6.31;95.04;100731.89;1471412;88;21368;-78
2024/02/29 01:19:27;;;;;;;57.97;32.03;;;;;;;6.28;95.43;100726.87;1479355;87;21375;-78
2024/02/29 01:21:55;;;;;;;54.20;31.27;;;;;;;6.27;94.59;100726.96;1474423;87;21294;-78
2024/02/29 01:24:24;;;;;;;57.07;30.37;;;;;;;6.22;94.76;100733.89;1481359;88;21427;-76
2024/02/29 01:26:51;;;;;;;58.27;30.37;;;;;;;6.18;94.93;100731.10;1474078;87;22365;-78
2024/02/29 01:29:18;;;;;;;52.20;30.57;;;;;;;6.12;95.31;100728.92;1468849;87;21530;-78
2024/02/29 01:31:45;;;;;;;50.90;30.03;;;;;;;6.12;95.53;100730.23;1475855;88;21541;-78
2024/02/29 01:34:12;;;;;;;55.80;30.93;;;;;;;6.05;96.80;100726.39;1473653;87;21605;-79
2024/02/29 01:36:39;;;;;;;65.27;33.33;;;;;;;6.01;97.88;100724.92;1476129;87;21935;-78
2024/02/29 01:39:06;;;;;;;58.27;32.73;;;;;;;5.98;98.01;100726.45;1411836;90;22346;-77
2024/02/29 01:41:33;;;;;;;57.07;31.90;;;;;;;5.98;97.76;100729.92;1469002;87;21323;-78
2024/02/29 01:44:00;;;;;;;54.90;32.27;;;;;;;5.92;100.00;100731.64;1474421;87;21265;-77
2024/02/29 01:46:28;;;;;;;50.10;29.80;;;;;;;5.85;100.00;100731.73;1467922;87;21420;-78
2024/02/29 01:48:57;;;;;;;47.80;29.20;;;;;;;5.80;100.00;100729.91;1470321;87;22987;-77
2024/02/29 01:51:25;;;;;;;57.53;31.57;;;;;;;5.82;100.00;100730.64;1474844;88;21250;-77
2024/02/29 01:53:53;;;;;;;50.27;28.80;;;;;;;5.79;100.00;100724.30;1478922;88;21531;-77
2024/02/29 01:56:21;;;;;;;48.37;26.27;;;;;;;5.75;100.00;100727.59;1483469;87;23016;-78
2024/02/29 01:58:49;;;;;;;47.13;26.93;;;;;;;5.71;100.00;100730.09;1475658;87;21443;-77
2024/02/29 02:01:16;;;;;;;46.23;25.43;;;;;;;5.67;100.00;100728.64;1481960;88;21485;-77
2024/02/29 02:03:43;;;;;;;41.10;24.87;;;;;;;5.66;100.00;100729.09;1467234;87;21308;-78
2024/02/29 02:06:10;;;;;;;50.30;28.63;;;;;;;5.70;100.00;100733.67;1472747;87;21441;-78
2024/02/29 02:08:37;;;;;;;44.70;26.90;;;;;;;5.67;100.00;100724.70;1465431;87;21621;-78
2024/02/29 02:11:05;;;;;;;50.37;26.93;;;;;;;5.63;100.00;100729.78;1474137;87;21339;-77
2024/02/29 02:13:32;;;;;;;44.80;26.83;;;;;;;5.60;100.00;100726.06;1480839;87;21375;-77
2024/02/29 02:15:59;;;;;;;38.40;24.33;;;;;;;5.58;100.00;100730.58;1477271;87;21426;-77
2024/02/29 02:18:26;;;;;;;41.40;25.00;;;;;;;5.59;100.00;100730.48;1477020;88;21523;-78
2024/02/29 02:20:56;;;;;;;48.70;26.17;;;;;;;5.60;100.00;100724.75;1471706;87;21346;-77
2024/02/29 02:23:24;;;;;;;48.33;25.97;;;;;;;5.60;100.00;100731.31;1465551;88;21419;-78
2024/02/29 02:25:51;;;;;;;44.83;27.40;;;;;;;5.59;100.00;100731.80;1472459;87;21383;-77
2024/02/29 02:28:19;;;;;;;47.23;28.23;;;;;;;5.61;100.00;100730.36;1464738;88;21324;-79
2024/02/29 02:30:46;;;;;;;47.17;28.87;;;;;;;5.63;100.00;100732.41;1471440;88;21404;-78
2024/02/29 02:33:15;;;;;;;46.93;27.23;;;;;;;5.61;100.00;100734.30;1472157;87;21368;-78
2024/02/29 02:35:42;;;;;;;53.63;26.87;;;;;;;5.57;100.00;100734.16;1476785;88;21397;-79
2024/02/29 02:38:09;;;;;;;49.53;26.73;;;;;;;5.58;100.00;100738.45;1468623;87;21360;-76
2024/02/29 02:40:36;;;;;;;48.67;29.03;;;;;;;5.54;100.00;100735.69;1471896;87;21680;-77
2024/02/29 02:43:04;;;;;;;50.53;28.20;;;;;;;5.53;100.00;100731.40;1475147;87;21412;-77
2024/02/29 02:45:31;;;;;;;46.50;28.43;;;;;;;5.54;100.00;100733.06;1472779;88;22366;-77
2024/02/29 02:47:58;;;;;;;47.73;26.57;;;;;;;5.50;100.00;100729.82;1477417;87;21339;-77
2024/02/29 02:50:25;;;;;;;52.13;28.53;;;;;;;5.49;100.00;100735.17;1475791;87;21383;-77
2024/02/29 02:52:52;;;;;;;46.13;28.43;;;;;;;5.52;100.00;100738.41;1475561;88;21243;-77
2024/02/29 02:55:20;;;;;;;49.33;27.83;;;;;;;5.52;100.00;100736.27;1475944;87;21427;-78
2024/02/29 02:57:47;;;;;;;55.97;30.37;;;;;;;5.47;100.00;100735.29;1471700;88;21603;-76
2024/02/29 03:00:14;;;;;;;47.50;28.37;;;;;;;5.40;100.00;100734.02;1481605;87;21294;-77
2024/02/29 03:02:41;;;;;;;47.20;30.47;;;;;;;5.34;100.00;100734.45;1475172;88;22498;-77
2024/02/29 03:05:09;;;;;;;46.30;28.37;;;;;;;5.33;100.00;100738.87;1480311;87;21412;-77
2024/02/29 03:07:38;;;;;;;48.13;27.90;;;;;;;5.27;100.00;100724.86;1478613;87;21331;-77
2024/02/29 03:10:08;;;;;;;47.80;27.33;;;;;;;5.31;100.00;100732.88;1467661;87;21302;-76
2024/02/29 03:12:37;;;;;;;49.83;30.37;;;;;;;5.29;100.00;100726.05;1475300;87;21456;-77
2024/02/29 03:15:06;;;;;;;45.97;29.33;;;;;;;5.30;100.00;100733.83;1468538;87;21434;-76
2024/02/29 03:17:33;;;;;;;45.30;26.70;;;;;;;5.25;100.00;100725.43;1479016;87;21404;-77
2024/02/29 03:20:00;;;;;;;51.50;27.47;;;;;;;5.26;100.00;100732.34;1483086;87;21346;-77
2024/02/29 03:22:27;;;;;;;45.40;26.63;;;;;;;5.18;100.00;100726.81;1475112;87;22299;-77
2024/02/29 03:24:55;;;;;;;53.53;28.03;;;;;;;5.13;100.00;100726.28;1474037;87;21331;-78
2024/02/29 03:27:22;;;;;;;50.40;27.30;;;;;;;5.18;100.00;100732.06;1471849;87;21376;-78
2024/02/29 03:29:51;;;;;;;45.43;26.27;;;;;;;5.20;100.00;100730.16;1473896;87;21367;-78
2024/02/29 03:32:19;;;;;;;49.07;29.47;;;;;;;5.20;100.00;100731.46;1481317;87;22175;-77
2024/02/29 03:34:46;;;;;;;47.20;27.57;;;;;;;5.19;100.00;100729.80;1474072;87;21345;-76
2024/02/29 03:37:14;;;;;;;52.30;29.10;;;;;;;5.16;100.00;100729.53;1475065;87;22131;-77
2024/02/29 03:39:41;;;;;;;51.37;28.97;;;;;;;5.16;100.00;100730.84;1477651;88;22337;-77
2024/02/29 03:42:08;;;;;;;52.23;29.20;;;;;;;5.20;100.00;100738.02;1481219;87;22037;-76
2024/02/29 03:44:35;;;;;;;56.73;28.87;;;;;;;5.22;100.00;100742.70;1474009;88;21442;-78
2024/02/29 03:47:03;;;;;;;56.03;31.53;;;;;;;5.23;100.00;100743.06;1476627;87;21280;-76
2024/02/29 03:49:30;;;;;;;52.07;28.77;;;;;;;5.24;100.00;100740.83;1472316;87;21419;-77
2024/02/29 03:51:57;;;;;;;53.93;30.47;;;;;;;5.24;100.00;100740.83;1474814;87;21324;-77
2024/02/29 03:54:25;;;;;;;51.83;29.40;;;;;;;5.22;100.00;100740.08;1476969;88;21368;-77
2024/02/29 03:56:52;;;;;;;49.53;28.40;;;;;;;5.21;100.00;100742.34;1472394;87;21539;-76
2024/02/29 03:59:19;;;;;;;44.77;28.30;;;;;;;5.15;100.00;100742.73;1470078;87;21279;-77
2024/02/29 04:01:48;;;;;;;48.97;27.87;;;;;;;5.15;100.00;100742.73;1469471;87;21383;-76
2024/02/29 04:04:17;;;;;;;61.00;29.10;;;;;;;5.07;100.00;100734.58;1471879;88;22085;-76
2024/02/29 04:06:45;;;;;;;47.53;28.93;;;;;;;5.10;100.00;100748.80;1468511;87;21279;-78
2024/02/29 04:09:13;;;;;;;49.47;28.90;;;;;;;5.10;100.00;100748.80;1468602;88;21531;-79
2024/02/29 04:11:41;;;;;;;54.90;30.80;;;;;;;5.11;100.00;100750.47;1471620;87;21324;-77
2024/02/29 04:14:09;;;;;;;47.00;29.90;;;;;;;5.09;100.00;100755.84;1475957;87;22192;-78
2024/02/29 04:16:37;;;;;;;60.33;33.60;;;;;;;5.07;100.00;100755.56;1472618;87;21556;-78
2024/02/29 04:19:05;;;;;;;54.93;30.07;;;;;;;5.07;100.00;100759.50;1476040;87;22149;-78
2024/02/29 04:21:33;;;;;;;54.13;30.73;;;;;;;4.98;100.00;100751.31;1483796;87;22059;-78
2024/02/29 04:24:01;;;;;;;50.13;31.87;;;;;;;4.98;100.00;100751.31;1474833;87;21359;-78
2024/02/29 04:26:29;;;;;;;55.27;32.10;;;;;;;5.05;100.00;100756.97;1477675;87;22017;-77
2024/02/29 04:28:56;;;;;;;49.40;30.23;;;;;;;5.07;100.00;100762.13;1470495;87;21502;-77
2024/02/29 04:31:23;;;;;;;47.30;30.57;;;;;;;5.04;100.00;100753.16;1472184;88;21626;-77
2024/02/29 04:33:50;;;;;;;52.83;30.30;;;;;;;4.98;100.00;100750.47;1478698;87;21451;-77
2024/02/29 04:36:17;;;;;;;50.90;29.07;;;;;;;4.98;100.00;100761.80;1469935;87;23212;-77
2024/02/29 04:38:45;;;;;;;55.03;31.00;;;;;;;4.97;100.00;100760.09;1478760;87;22104;-77
2024/02/29 04:41:12;;;;;;;55.37;30.73;;;;;;;5.00;100.00;100762.16;1470903;88;21843;-77
2024/02/29 04:43:39;;;;;;;55.10;29.37;;;;;;;4.93;100.00;100753.88;1467025;87;22089;-77
2024/02/29 04:46:06;;;;;;;50.30;30.23;;;;;;;4.95;100.00;100762.48;1478437;88;21552;-78
2024/02/29 04:48:33;;;;;;;50.03;31.40;;;;;;;4.95;100.00;100762.48;1482100;87;21346;-78
2024/02/29 04:51:00;;;;;;;55.60;32.03;;;;;;;4.94;100.00;100766.87;1478379;87;23095;-78
2024/02/29 04:53:27;;;;;;;56.70;32.67;;;;;;;4.94;100.00;100766.87;1480008;88;21455;-78
2024/02/29 04:55:55;;;;;;;52.57;29.27;;;;;;;4.92;100.00;100760.91;1465407;87;22104;-77
2024/02/29 04:58:23;;;;;;;53.17;31.00;;;;;;;4.88;100.00;100769.91;1479085;87;22146;-78
2024/02/29 05:00:50;;;;;;;49.93;31.33;;;;;;;4.76;100.00;100757.62;1476770;87;22045;-78
2024/02/29 05:03:17;;;;;;;50.30;30.57;;;;;;;4.76;100.00;100757.62;1477276;88;22270;-77
2024/02/29 05:05:44;;;;;;;56.17;31.80;;;;;;;4.78;100.00;100766.23;1472927;88;22080;-78
2024/02/29 05:08:12;;;;;;;52.83;31.00;;;;;;;4.75;100.00;100767.75;1479736;87;22089;-80
2024/02/29 05:10:40;;;;;;;50.33;31.23;;;;;;;4.75;100.00;100776.45;1470104;87;21978;-80
2024/02/29 05:13:07;;;;;;;50.30;31.43;;;;;;;4.75;100.00;100776.45;1470631;88;21316;-78
2024/02/29 05:15:35;;;;;;;50.77;29.90;;;;;;;4.73;100.00;100779.64;1468481;87;21434;-80
2024/02/29 05:18:03;;;;;;;57.77;31.67;;;;;;;4.70;100.00;100779.00;1469772;87;22095;-79
2024/02/29 05:20:30;;;;;;;53.63;29.37;;;;;;;4.62;100.00;100779.50;1476001;87;23069;-79
2024/02/29 05:22:58;;;;;;;56.97;30.40;;;;;;;4.58;100.00;100779.82;1478968;87;22336;-79
2024/02/29 05:25:25;;;;;;;46.50;28.37;;;;;;;4.56;100.00;100773.83;1475866;87;22112;-80
2024/02/29 05:27:53;;;;;;;49.60;27.77;;;;;;;4.56;100.00;100775.14;1471877;87;22051;-79
2024/02/29 05:30:20;;;;;;;46.77;27.40;;;;;;;4.56;100.00;100776.45;1476096;87;23055;-79
2024/02/29 05:32:50;;;;;;;54.27;28.07;;;;;;;4.54;100.00;100775.22;1477823;87;22339;-79
2024/02/29 05:35:18;;;;;;;53.20;31.03;;;;;;;4.53;100.00;100780.95;1469646;87;22110;-79
2024/02/29 05:37:45;;;;;;;46.47;28.50;;;;;;;4.47;100.00;100781.83;1470180;88;22931;-79
2024/02/29 05:40:12;;;;;;;45.30;28.30;;;;;;;4.46;100.00;100787.98;1475260;87;22154;-80
2024/02/29 05:42:40;;;;;;;48.70;29.10;;;;;;;4.47;100.00;100792.30;1473769;87;22168;-78
2024/02/29 05:45:10;;;;;;;48.83;29.77;;;;;;;4.48;100.00;100789.56;1482137;87;21992;-78
2024/02/29 05:47:38;;;;;;;45.53;26.60;;;;;;;4.53;100.00;100795.36;1469129;88;21970;-78
2024/02/29 05:50:07;;;;;;;51.70;27.73;;;;;;;4.59;100.00;100790.66;1474704;88;22929;-78
2024/02/29 05:52:36;;;;;;;46.77;28.83;;;;;;;4.66;100.00;100786.24;1478891;87;21360;-78
2024/02/29 05:55:05;;;;;;;49.20;30.20;;;;;;;4.74;100.00;100783.09;1464944;87;21500;-78
2024/02/29 05:57:34;;;;;;;45.83;28.73;;;;;;;4.85;100.00;100793.72;1477607;88;21346;-78
2024/02/29 06:00:03;;;;;;;51.07;28.87;;;;;;;4.85;100.00;100793.72;1475845;88;21368;-79
2024/02/29 06:02:30;;;;;;;48.83;28.10;;;;;;;4.90;100.00;100790.32;1473627;88;21324;-78
2024/02/29 06:04:58;;;;;;;46.87;29.50;;;;;;;5.03;100.00;100768.51;1472118;87;21405;-78
2024/02/29 06:07:25;;;;;;;49.13;30.37;;;;;;;5.08;100.00;100776.91;1474317;87;22319;-78
2024/02/29 06:09:52;;;;;;;58.63;34.63;;;;;;;5.22;100.00;100787.31;1472209;87;21332;-78
2024/02/29 06:12:19;;;;;;;51.23;31.70;;;;;;;5.32;100.00;100787.07;1474585;87;21368;-78
2024/02/29 06:14:47;;;;;;;50.80;31.40;;;;;;;5.39;100.00;100790.94;1477908;87;21398;-78
2024/02/29 06:17:16;;;;;;;58.60;33.47;;;;;;;5.45;100.00;100797.55;1473540;87;21324;-78
2024/02/29 06:19:43;;;;;;;52.63;33.27;;;;;;;5.51;100.00;100794.98;1471246;88;22291;-78
2024/02/29 06:22:10;;;;;;;57.13;34.83;;;;;;;5.57;100.00;100795.86;1473600;87;22239;-79
2024/02/29 06:24:37;;;;;;;61.00;34.03;;;;;;;5.62;100.00;100787.20;1473304;87;21354;-78
2024/02/29 06:27:04;;;;;;;55.43;32.37;;;;;;;5.70;100.00;100796.70;1474906;87;21858;-78
2024/02/29 06:29:31;;;;;;;52.67;33.70;;;;;;;5.76;100.00;100793.64;1473229;87;21332;-78
2024/02/29 06:31:58;;;;;;;58.03;33.00;;;;;;;5.86;100.00;100799.91;1471720;88;21346;-78
2024/02/29 06:34:25;;;;;;;64.83;34.63;;;;;;;5.98;100.00;100801.34;1475469;87;21427;-78
2024/02/29 06:36:54;;;;;;;60.70;33.03;;;;;;;6.05;100.00;100794.71;1476113;87;21538;-78
2024/02/29 06:39:21;;;;;;;60.60;33.57;;;;;;;6.15;100.00;100800.97;1481002;87;21287;-78
2024/02/29 06:41:48;;;;;;;63.90;32.77;;;;;;;6.23;100.00;100805.21;1475289;87;22239;-79
2024/02/29 06:44:16;;;;;;;60.03;33.93;;;;;;;6.32;100.00;100811.11;1474872;87;21493;-79
2024/02/29 06:46:43;;;;;;;51.63;31.27;;;;;;;6.45;100.00;100808.94;1475103;87;21404;-79
2024/02/29 06:49:10;;;;;;;52.10;32.00;;;;;;;6.57;100.00;100806.71;1468155;88;21383;-79
2024/02/29 06:51:37;;;;;;;53.93;31.27;;;;;;;6.69;100.00;100809.75;1474888;87;21301;-78
2024/02/29 06:54:05;;;;;;;70.97;33.03;;;;;;;6.83;100.00;100819.73;1473919;87;21346;-78
2024/02/29 06:56:32;;;;;;;53.43;30.30;;;;;;;6.98;100.00;100819.90;1473604;87;21575;-78
2024/02/29 06:58:59;;;;;;;45.20;31.27;;;;;;;7.13;100.00;100809.52;1469680;88;21360;-77
2024/02/29 07:01:30;;;;;;;54.57;29.83;;;;;;;7.29;100.00;100812.33;1472614;87;21912;-77
2024/02/29 07:03:57;;;;;;;52.03;29.45;;;;;;;7.45;100.00;100813.67;1472769;88;22313;-77
2024/02/29 07:06:25;;;;;;;42.77;24.97;;;;;;;7.62;100.00;100818.09;1473402;87;21397;-77
2024/02/29 07:08:52;;;;;;;50.33;29.60;;;;;;;7.74;100.00;100817.63;1404038;88;21258;-76
2024/02/29 07:11:19;;;;;;;45.30;26.87;;;;;;;7.90;100.00;100820.73;1391743;89;21346;-76
2024/02/29 07:13:48;;;;;;;48.50;24.97;;;;;;;8.04;100.00;100824.45;1398438;87;21235;-77
2024/02/29 07:16:15;;;;;;;44.57;25.87;;;;;;;8.17;100.00;100824.78;1403379;87;21472;-77
2024/02/29 07:18:42;;;;;;;38.50;25.60;;;;;;;8.34;100.00;100818.99;1404770;87;21361;-75
2024/02/29 07:21:09;;;;;;;38.87;25.13;;;;;;;8.42;100.00;100824.52;1474514;88;21398;-77
2024/02/29 07:23:37;;;;;;;41.03;24.47;;;;;;;8.59;100.00;100818.71;1472386;87;21427;-78
2024/02/29 07:26:04;;;;;;;39.10;25.23;;;;;;;8.76;100.00;100814.70;1467651;88;21434;-78
2024/02/29 07:28:32;;;;;;;38.57;25.73;;;;;;;8.88;100.00;100817.29;1477136;87;21531;-79
2024/02/29 07:30:59;;;;;;;38.40;23.50;;;;;;;8.93;100.00;100814.62;1477098;87;21574;-78
2024/02/29 07:33:27;;;;;;;39.90;24.07;;;;;;;9.04;100.00;100810.61;1476765;87;21427;-79
2024/02/29 07:35:54;;;;;;;40.10;25.23;;;;;;;9.21;100.00;100810.52;1481332;87;21478;-79
2024/02/29 07:38:21;;;;;;;48.33;29.00;;;;;;;9.34;100.00;100811.62;1468729;87;21434;-76
2024/02/29 07:40:48;;;;;;;47.20;29.57;;;;;;;9.39;100.00;100813.40;1472568;88;21512;-77
2024/02/29 07:43:16;;;;;;;44.47;30.10;;;;;;;9.42;100.00;100805.20;1476032;87;21383;-77
2024/02/29 07:45:43;;;;;;;52.37;32.30;;;;;;;9.46;100.00;100806.61;1475535;88;21331;-77
2024/02/29 07:48:10;;;;;;;55.47;31.77;;;;;;;9.51;100.00;100804.08;1471361;87;21398;-77
2024/02/29 07:50:37;;;;;;;51.30;30.33;;;;;;;9.59;100.00;100797.16;1477881;87;21360;-79
2024/02/29 07:53:06;;;;;;;69.00;39.33;;;;;;;9.68;100.00;100794.20;1474973;87;21405;-79
2024/02/29 07:55:33;;;;;;;69.63;40.20;;;;;;;9.76;100.00;100795.70;1473032;87;22360;-79
2024/02/29 07:58:00;;;;;;;55.80;31.20;;;;;;;9.86;100.00;100793.09;1471418;87;21426;-77
2024/02/29 08:00:27;;;;;;;65.70;36.77;;;;;;;10.05;100.00;100793.64;1467663;88;21427;-78
2024/02/29 08:02:55;;;;;;;54.90;33.20;;;;;;;10.29;100.00;100794.13;1473428;87;21375;-78
2024/02/29 08:05:22;;;;;;;61.20;33.63;;;;;;;10.51;100.00;100787.77;1470840;87;21608;-78
2024/02/29 08:07:49;;;;;;;54.47;31.07;;;;;;;10.74;100.00;100784.84;1471336;88;21922;-78
2024/02/29 08:10:16;;;;;;;52.47;31.77;;;;;;;10.91;100.00;100785.95;1474313;87;21419;-78
2024/02/29 08:12:44;;;;;;;55.70;31.97;;;;;;;11.13;100.00;100776.34;1463593;87;21368;-78
2024/02/29 08:15:12;;;;;;;53.80;32.73;;;;;;;11.29;100.00;100783.22;1404017;87;21375;-78
2024/02/29 08:17:39;;;;;;;53.00;33.93;;;;;;;11.48;100.00;100776.20;1391952;89;21428;-78
2024/02/29 08:20:07;;;;;;;52.97;33.93;;;;;;;11.67;100.00;100773.45;1398547;87;21323;-78
2024/02/29 08:22:36;;;;;;;58.23;34.23;;;;;;;11.82;100.00;100768.50;1397189;87;21257;-78
2024/02/29 08:25:05;;;;;;;72.63;46.60;;;;;;;12.02;100.00;100764.45;1557493;88;21346;-78
2024/02/29 08:27:32;;;;;;;70.87;42.27;;;;;;;12.21;100.00;100766.16;1403655;87;21287;-78
2024/02/29 08:29:59;;;;;;;66.17;40.30;;;;;;;12.36;100.00;100762.00;1398586;87;21265;-77
2024/02/29 08:32:26;;;;;;;59.77;36.07;;;;;;;12.49;100.00;100766.45;1404670;87;21389;-76
2024/02/29 08:34:54;;;;;;;60.80;37.47;;;;;;;12.59;100.00;100759.22;1404888;87;21250;-77
2024/02/29 08:37:22;;;;;;;65.43;39.70;;;;;;;12.72;100.00;100756.20;1397855;87;21280;-78
2024/02/29 08:39:49;;;;;;;60.63;36.60;;;;;;;12.86;100.00;100749.01;1398261;87;21257;-77
2024/02/29 08:42:16;;;;;;;66.27;41.27;;;;;;;13.04;100.00;100746.30;1404502;88;22212;-78
2024/02/29 08:44:43;;;;;;;54.03;35.93;;;;;;;12.98;100.00;100746.10;1559156;87;21140;-77
2024/02/29 08:47:11;;;;;;;57.77;35.63;;;;;;;13.16;100.00;100740.73;1553899;87;21348;-79
2024/02/29 08:49:38;;;;;;;61.00;35.17;;;;;;;13.39;100.00;100741.89;1398795;87;22123;-78
2024/02/29 08:52:07;;;;;;;84.27;50.90;;;;;;;13.66;100.00;100737.35;1398301;88;22108;-78
2024/02/29 08:54:35;;;;;;;59.50;37.53;;;;;;;13.78;100.00;100733.41;1402069;87;21213;-78
2024/02/29 08:57:04;;;;;;;52.33;33.77;;;;;;;13.83;100.00;100739.58;1398654;88;21317;-78
2024/02/29 08:59:32;;;;;;;59.23;34.87;;;;;;;13.92;100.00;100738.61;1395977;87;22086;-78
2024/02/29 09:02:02;;;;;;;58.33;35.10;;;;;;;13.93;100.00;100744.28;1397362;87;21243;-78
2024/02/29 09:04:29;;;;;;;54.30;32.83;;;;;;;13.97;100.00;100739.78;1530245;88;21280;-79
2024/02/29 09:06:56;;;;;;;50.43;32.10;;;;;;;13.97;100.00;100743.78;1441881;87;22261;-78
2024/02/29 09:09:24;;;;;;;57.63;33.70;;;;;;;13.99;100.00;100735.15;1466956;87;21485;-78
2024/02/29 09:11:51;;;;;;;68.83;40.67;;;;;;;14.03;100.00;100734.82;1470539;87;21442;-78
2024/02/29 09:14:19;;;;;;;61.20;36.00;;;;;;;14.08;100.00;100737.83;1478713;88;21368;-77
2024/02/29 09:16:46;;;;;;;64.63;34.60;;;;;;;14.16;100.00;100733.86;1475869;88;21412;-78
2024/02/29 09:19:13;;;;;;;57.00;32.77;;;;;;;14.28;100.00;100735.71;1476132;87;21635;-79
2024/02/29 09:21:40;;;;;;;49.63;32.37;;;;;;;14.40;100.00;100732.55;1471750;87;21287;-78
2024/02/29 09:24:07;;;;;;;51.87;34.90;;;;;;;14.53;100.00;100727.26;1474640;87;21420;-78
2024/02/29 09:26:35;;;;;;;53.53;32.70;;;;;;;14.66;100.00;100727.61;1468936;88;21368;-78
2024/02/29 09:29:03;;;;;;;59.03;36.10;;;;;;;14.78;100.00;100731.59;1474193;87;22507;-79
2024/02/29 09:31:30;;;;;;;63.47;33.67;;;;;;;14.84;100.00;100733.58;1466970;88;21672;-79
2024/02/29 09:33:57;;;;;;;53.10;34.50;;;;;;;14.94;100.00;100727.27;1467809;87;21449;-78
2024/02/29 09:36:25;;;;;;;54.73;32.83;;;;;;;15.05;100.00;100733.58;1471251;87;21427;-78
2024/02/29 09:38:52;;;;;;;55.73;34.77;;;;;;;15.14;100.00;100733.89;1474076;87;21353;-79
2024/02/29 09:41:19;;;;;;;54.40;36.40;;;;;;;15.21;100.00;100730.86;1471620;88;21597;-79
2024/02/29 09:43:47;;;;;;;57.90;35.63;;;;;;;15.34;100.00;100729.83;1473292;87;21560;-79
2024/02/29 09:46:14;;;;;;;55.80;33.33;;;;;;;15.38;100.00;100726.82;1473129;88;21338;-78
2024/02/29 09:48:41;;;;;;;51.70;32.00;;;;;;;15.44;100.00;100727.46;1472163;88;21352;-79
2024/02/29 09:51:16;;;;;;;63.80;36.83;;;;;;;15.54;100.00;100721.44;1472128;87;21427;-78
2024/02/29 09:53:44;;;;;;;77.83;45.77;;;;;;;15.60;100.00;100710.08;1469764;87;22447;-79
2024/02/29 09:56:13;;;;;;;60.80;34.57;;;;;;;15.69;100.00;100713.06;1469425;87;21434;-78
2024/02/29 09:58:41;;;;;;;58.60;31.23;;;;;;;15.72;100.00;100710.55;1474420;88;21390;-78
2024/02/29 10:01:10;;;;;;;50.60;32.43;;;;;;;15.84;100.00;100713.66;1474448;87;21442;-79
2024/02/29 10:03:38;;;;;;;49.60;32.30;;;;;;;16.00;100.00;100709.06;1471888;87;22291;-78
2024/02/29 10:06:05;;;;;;;57.83;35.80;;;;;;;16.11;100.00;100709.17;1467562;88;22174;-80
2024/02/29 10:08:33;;;;;;;59.30;38.00;;;;;;;16.05;100.00;100704.51;1463688;88;21353;-77
2024/02/29 10:11:02;;;;;;;51.70;34.40;;;;;;;16.10;100.00;100706.16;1471070;88;21497;-80
2024/02/29 10:13:41;;;;;;;53.83;34.73;;;;;;;16.15;100.00;100706.45;1402069;87;21235;-79
2024/02/29 10:16:09;;;;;;;53.10;32.97;;;;;;;16.06;100.00;100700.85;1470551;87;21435;-78
2024/02/29 10:18:38;;;;;;;55.13;34.13;;;;;;;16.03;100.00;100702.54;1397369;87;21257;-78
2024/02/29 10:21:13;;;;;;;53.00;32.73;;;;;;;16.09;100.00;100700.50;1557184;88;21302;-79
2024/02/29 10:23:41;;;;;;;50.90;32.10;;;;;;;16.28;100.00;100696.51;1552555;87;22344;-78
2024/02/29 10:26:09;;;;;;;44.90;31.23;;;;;;;16.51;100.00;100695.16;1397519;88;22197;-79
2024/02/29 10:28:36;;;;;;;49.80;31.50;;;;;;;16.61;100.00;100694.42;1398199;88;21185;-78
2024/02/29 10:31:04;;;;;;;48.43;31.57;;;;;;;16.43;64.82;100685.91;1398494;88;21258;-79
2024/02/29 10:33:33;;;;;;;44.40;30.27;;;;;;;16.52;66.12;100688.83;1410123;87;21346;-79
2024/02/29 10:36:13;;;;;;;45.17;31.23;;;;;;;16.63;65.72;100684.87;1481678;87;21361;-78
2024/02/29 10:38:40;;;;;;;53.28;33.50;;;;;;;16.61;65.50;100681.06;1559309;87;21140;-79
2024/02/29 10:41:10;;;;;;;49.23;31.13;;;;;;;16.65;65.06;100678.34;1398493;87;21324;-80
2024/02/29 10:43:38;;;;;;;52.13;33.48;;;;;;;16.69;64.08;100674.31;1395790;88;21309;-79
2024/02/29 10:46:08;;;;;;;52.73;32.20;;;;;;;16.45;63.70;100673.17;1403340;87;21413;-79
2024/02/29 10:49:07;;;;;;;47.90;31.87;;;;;;;16.36;63.10;100671.59;1396038;87;21331;-79
2024/02/29 10:51:53;;;;;;;47.17;31.30;;;;;;;16.08;62.76;100672.11;1559197;87;21317;-78
2024/02/29 10:54:28;;;;;;;52.67;34.50;;;;;;;16.14;62.52;100668.77;1559164;87;21221;-79
2024/02/29 10:56:56;;;;;;;48.03;32.33;;;;;;;16.38;64.62;100658.89;1423006;88;21383;-76
2024/02/29 10:59:25;;;;;;;47.37;33.47;;;;;;;16.63;64.24;100654.14;1398158;87;21272;-79
2024/02/29 11:01:57;;;;;;;54.13;35.40;;;;;;;16.66;63.19;100650.63;1395989;88;21402;-79
2024/02/29 11:04:22;;;;;;;62.40;37.10;;;;;;;16.65;61.87;100648.94;1477024;88;21568;-78
2024/02/29 11:06:49;;;;;;;45.12;33.42;;;;;;;16.73;62.87;100641.88;1472452;88;21603;-77
2024/02/29 11:09:26;;;;;;;56.20;33.88;;;;;;;16.89;62.95;100649.77;1473592;87;21557;-78
2024/02/29 11:12:11;;;;;;;49.58;30.72;;;;;;;17.14;64.05;100639.09;1559138;88;21206;-80